Time;durP1;ratioP1;P1;durP2;ratioP2;P2;SDS_P1;SDS_P2;PMS_P1;PMS_P2;Temp;Humidity;BMP_temperature;BMP_pressure;BME280_temperature;BME280_humidity;BME280_pressure;Samples;Min_cycle;Max_cycle;Signal;HPM_P1;HPM_P2
2022/01/07 02:51:54;;;;;;;1.08;1.02;;;;;;;3.00;100.00;101091.66;6231902;22;20016;-77
2022/01/07 02:54:20;;;;;;;1.40;1.30;;;;;;;3.02;100.00;101080.31;6247514;23;20044;-78
2022/01/07 02:56:45;;;;;;;2.05;1.95;;;;;;;3.04;100.00;101078.50;6246646;23;20008;-79
2022/01/07 02:59:51;;;;;;;0.60;0.60;;;;;;;3.11;100.00;101081.97;6247023;23;20064;-79
2022/01/07 03:02:16;;;;;;;0.70;0.70;;;;;;;3.10;100.00;101075.84;6247555;23;20004;-79
2022/01/07 03:04:48;;;;;;;0.70;0.70;;;;;;;3.13;100.00;101073.22;6247047;23;20000;-79
2022/01/07 03:07:15;;;;;;;0.70;0.70;;;;;;;3.14;100.00;101069.69;6247493;23;20000;-79
2022/01/07 03:09:40;;;;;;;0.70;0.70;;;;;;;3.23;100.00;101083.63;6247754;23;20019;-79
2022/01/07 03:12:06;;;;;;;1.08;1.05;;;;;;;3.20;100.00;101071.38;6247604;23;20075;-78
2022/01/07 03:14:31;;;;;;;0.90;0.90;;;;;;;3.26;100.00;101078.34;6219111;23;20004;-79
2022/01/07 03:16:56;;;;;;;1.60;1.50;;;;;;;3.29;100.00;101063.44;6247333;23;20012;-79
2022/01/07 03:19:22;;;;;;;0.95;0.93;;;;;;;3.29;100.00;101073.06;6247513;23;20012;-79
2022/01/07 03:21:47;;;;;;;0.65;0.65;;;;;;;3.34;100.00;101074.72;6246794;23;20436;-78
2022/01/07 03:24:12;;;;;;;0.60;0.60;;;;;;;3.33;100.00;101074.75;6247734;23;20384;-79
2022/01/07 03:26:38;;;;;;;1.27;1.17;;;;;;;3.39;100.00;101061.59;6247954;23;20067;-78
2022/01/07 03:29:04;;;;;;;0.93;0.93;;;;;;;3.45;100.00;101058.91;6247502;23;20004;-78
2022/01/07 03:31:29;;;;;;;0.93;0.93;;;;;;;3.43;100.00;101060.66;6246600;22;20087;-77
2022/01/07 03:33:54;;;;;;;1.23;0.70;;;;;;;3.43;100.00;101058.91;6246603;23;20424;-78
2022/01/07 03:36:20;;;;;;;0.85;0.85;;;;;;;3.38;100.00;101052.84;6247408;23;20054;-78
2022/01/07 03:38:45;;;;;;;0.95;0.93;;;;;;;3.40;100.00;101047.56;6246848;23;20482;-79
2022/01/07 03:41:10;;;;;;;1.52;1.42;;;;;;;3.36;100.00;101056.38;6247380;23;20417;-78
2022/01/07 03:43:36;;;;;;;10.15;1.40;;;;;;;3.37;100.00;101040.59;6249225;23;20023;-78
2022/01/07 03:46:01;;;;;;;1.05;0.98;;;;;;;3.40;100.00;101030.06;6249617;23;20008;-79
2022/01/07 03:48:27;;;;;;;0.93;0.90;;;;;;;3.42;100.00;101033.53;6248814;23;20005;-78
2022/01/07 03:50:52;;;;;;;0.73;0.73;;;;;;;3.37;100.00;101023.97;6248608;23;20424;-79
2022/01/07 03:53:42;;;;;;;0.82;0.82;;;;;;;3.43;100.00;101029.16;6248934;23;20440;-78
2022/01/07 03:56:10;;;;;;;1.85;0.80;;;;;;;3.41;100.00;101016.03;6249165;23;20310;-79
2022/01/07 03:58:35;;;;;;;0.90;0.90;;;;;;;3.40;100.00;101023.94;6249075;23;20004;-79
2022/01/07 04:01:03;;;;;;;1.00;1.00;;;;;;;3.42;100.00;101001.19;6248847;23;20054;-78
2022/01/07 04:03:29;;;;;;;0.70;0.70;;;;;;;3.37;100.00;101008.22;6248968;23;20000;-78
2022/01/07 04:05:54;;;;;;;1.65;1.52;;;;;;;3.37;100.00;100995.09;6248857;23;20046;-79
2022/01/07 04:08:20;;;;;;;1.83;1.73;;;;;;;3.43;100.00;100995.03;6249285;23;20000;-78
2022/01/07 04:10:46;;;;;;;1.10;1.00;;;;;;;3.44;100.00;100988.88;6248338;23;20016;-79
2022/01/07 04:13:12;;;;;;;2.20;2.10;;;;;;;3.48;100.00;100995.84;6249124;23;20083;-79
2022/01/07 04:15:37;;;;;;;2.22;2.13;;;;;;;3.46;100.00;100988.00;6248233;23;20007;-79
2022/01/07 04:18:03;;;;;;;2.47;2.38;;;;;;;3.48;100.00;101001.09;6248367;23;20115;-79
2022/01/07 04:20:32;;;;;;;3.67;3.38;;;;;;;3.52;100.00;101005.41;6249183;23;20009;-79
2022/01/07 04:22:58;;;;;;;2.72;2.63;;;;;;;3.53;100.00;100999.28;6248760;23;20024;-79
2022/01/07 04:25:24;;;;;;;3.03;2.90;;;;;;;3.63;100.00;101001.78;6248900;23;20004;-78
2022/01/07 04:27:52;;;;;;;2.55;2.42;;;;;;;3.58;100.00;101000.13;6249257;23;20084;-79
2022/01/07 04:30:19;;;;;;;2.10;2.00;;;;;;;3.62;100.00;100989.56;6248649;23;20422;-79
2022/01/07 04:32:45;;;;;;;2.30;2.20;;;;;;;3.70;100.00;100990.34;6247860;23;20000;-79
2022/01/07 04:35:13;;;;;;;2.20;2.10;;;;;;;3.60;100.00;100996.56;6248845;23;20054;-79
2022/01/07 04:37:39;;;;;;;3.25;3.05;;;;;;;3.68;100.00;101010.47;6248780;23;20008;-79
2022/01/07 04:40:07;;;;;;;2.92;2.72;;;;;;;3.66;100.00;100996.50;6248548;23;20553;-79
2022/01/07 04:42:32;;;;;;;3.30;3.10;;;;;;;3.75;100.00;100995.53;6247778;23;20000;-79
2022/01/07 04:44:57;;;;;;;2.47;2.38;;;;;;;3.82;100.00;100997.16;6248428;23;20015;-79
2022/01/07 04:47:23;;;;;;;2.65;2.55;;;;;;;3.83;100.00;100999.78;6249724;23;20083;-79
2022/01/07 04:49:50;;;;;;;2.67;2.58;;;;;;;3.75;100.00;100985.00;6248422;23;20024;-79
2022/01/07 04:52:17;;;;;;;3.08;2.85;;;;;;;3.88;100.00;100979.56;6247611;23;20071;-79
2022/01/07 04:54:44;;;;;;;2.97;2.80;;;;;;;3.85;100.00;100976.09;6247872;23;20436;-79
2022/01/07 04:57:09;;;;;;;2.63;2.53;;;;;;;3.87;100.00;100971.72;6248829;23;20103;-79
2022/01/07 04:59:34;;;;;;;2.90;2.75;;;;;;;3.85;100.00;100981.34;6248088;23;20011;-80
2022/01/07 05:02:00;;;;;;;2.53;2.42;;;;;;;3.82;100.00;100971.78;6248364;23;20008;-80
2022/01/07 05:04:25;;;;;;;3.45;3.15;;;;;;;3.97;100.00;100968.91;6248254;23;20007;-80
2022/01/07 05:06:52;;;;;;;3.15;3.00;;;;;;;3.95;100.00;100978.59;6247767;23;20007;-81
2022/01/07 05:09:18;;;;;;;2.90;2.70;;;;;;;3.93;100.00;100971.63;6248373;23;20000;-80
2022/01/07 05:11:46;;;;;;;3.00;2.88;;;;;;;4.01;100.00;100969.75;6247926;23;20000;-80
2022/01/07 05:14:12;;;;;;;2.67;2.58;;;;;;;3.98;100.00;100962.81;6248434;23;20302;-80
2022/01/07 05:16:37;;;;;;;2.53;2.42;;;;;;;4.03;100.00;100973.25;6248323;23;20000;-81
2022/01/07 05:19:04;;;;;;;2.50;2.40;;;;;;;4.04;100.00;100982.84;6248826;23;20075;-81
2022/01/07 05:21:29;;;;;;;3.15;2.95;;;;;;;4.08;100.00;100971.41;6248460;23;20031;-81
2022/01/07 05:23:54;;;;;;;2.47;2.38;;;;;;;4.11;100.00;100980.09;6248351;23;20000;-82
2022/01/07 05:26:20;;;;;;;3.15;2.95;;;;;;;4.04;100.00;100980.22;6248893;23;20024;-82
2022/01/07 05:28:45;;;;;;;2.60;2.50;;;;;;;4.09;100.00;100976.66;6248732;23;20000;-81
2022/01/07 05:31:11;;;;;;;2.60;2.50;;;;;;;4.08;100.00;100969.63;6247843;23;20040;-82
2022/01/07 05:33:36;;;;;;;2.38;2.28;;;;;;;4.14;100.00;100979.22;6248007;23;20078;-81
2022/01/07 05:36:04;;;;;;;2.42;2.33;;;;;;;4.16;100.00;100990.59;6248178;23;20015;-84
2022/01/07 05:38:30;;;;;;;2.20;2.10;;;;;;;4.14;100.00;100984.47;6248333;23;20004;-84
2022/01/07 05:40:55;;;;;;;2.58;2.47;;;;;;;4.08;100.00;100981.94;6248407;23;20012;-82
2022/01/07 05:43:21;;;;;;;2.50;2.40;;;;;;;4.13;100.00;100985.34;6248982;23;20005;-85
2022/01/07 05:45:46;;;;;;;3.72;3.25;;;;;;;4.09;100.00;100981.91;6247270;23;20008;-84
2022/01/07 05:48:14;;;;;;;2.97;2.80;;;;;;;4.12;100.00;100970.47;6248382;23;20007;-83
2022/01/07 05:50:45;;;;;;;3.60;3.40;;;;;;;4.10;100.00;100981.00;6248281;23;20436;-82
2022/01/07 05:53:13;;;;;;;2.33;2.22;;;;;;;4.21;100.00;100979.09;6248776;23;20088;-84
2022/01/07 05:55:38;;;;;;;2.40;2.30;;;;;;;4.25;100.00;100977.28;6241528;23;20069;-82
2022/01/07 05:58:10;;;;;;;2.30;2.20;;;;;;;4.19;100.00;100982.66;6247804;23;20063;-83
2022/01/07 06:01:11;;;;;;;2.70;2.60;;;;;;;4.13;100.00;100973.06;6248433;23;20005;-84
2022/01/07 06:03:37;;;;;;;2.75;2.65;;;;;;;4.18;100.00;100980.91;6248865;23;20004;-81
2022/01/07 06:06:02;;;;;;;3.03;2.83;;;;;;;4.22;100.00;100985.22;6247118;23;20521;-81
2022/01/07 06:08:29;;;;;;;3.47;3.28;;;;;;;4.23;100.00;100976.44;6247308;23;20050;-80
2022/01/07 06:10:54;;;;;;;3.08;2.88;;;;;;;4.25;100.00;100982.56;6247842;23;20019;-80
2022/01/07 06:13:20;;;;;;;3.45;3.25;;;;;;;4.34;100.00;100987.66;6247657;23;20004;-82
2022/01/07 06:15:45;;;;;;;3.40;3.20;;;;;;;4.33;100.00;100985.94;6247957;23;20007;-81
2022/01/07 06:18:11;;;;;;;3.88;3.28;;;;;;;4.29;100.00;100976.34;6248601;23;20000;-80
2022/01/07 06:20:36;;;;;;;2.40;2.30;;;;;;;4.34;100.00;100987.66;6248850;23;20024;-81
2022/01/07 06:23:02;;;;;;;2.60;2.50;;;;;;;4.34;100.00;100980.66;6248289;23;20007;-81
2022/01/07 06:25:27;;;;;;;2.70;2.60;;;;;;;4.32;100.00;100987.69;6248522;23;20047;-81
2022/01/07 06:27:52;;;;;;;4.15;3.90;;;;;;;4.36;100.00;100981.50;6248061;23;20008;-81
2022/01/07 06:30:18;;;;;;;2.60;2.50;;;;;;;4.40;100.00;100979.69;6247099;23;20281;-82
2022/01/07 06:32:43;;;;;;;2.85;2.67;;;;;;;4.39;100.00;100980.59;6246350;23;20000;-81
2022/01/07 06:35:10;;;;;;;2.60;2.50;;;;;;;4.43;100.00;100982.25;6247345;23;20059;-82
2022/01/07 06:37:36;;;;;;;3.65;3.45;;;;;;;4.40;100.00;100982.31;6246670;23;20436;-81
2022/01/07 06:40:01;;;;;;;2.92;2.80;;;;;;;4.50;100.00;100978.66;6247204;23;20015;-82
2022/01/07 06:42:27;;;;;;;2.70;2.60;;;;;;;4.43;100.00;100971.75;6247860;23;20004;-81
2022/01/07 06:44:52;;;;;;;2.83;2.50;;;;;;;4.41;100.00;100974.41;6247715;23;20066;-80
2022/01/07 06:47:18;;;;;;;3.22;3.05;;;;;;;4.44;100.00;100987.50;6247563;23;20000;-80
2022/01/07 06:49:43;;;;;;;3.25;3.05;;;;;;;4.46;100.00;100990.09;6247912;23;20004;-80
2022/01/07 06:52:09;;;;;;;3.08;2.88;;;;;;;4.40;100.00;100998.09;6248071;23;20083;-80
2022/01/07 06:54:34;;;;;;;3.28;3.08;;;;;;;4.37;100.00;100982.34;6220606;23;20417;-80
2022/01/07 06:57:00;;;;;;;4.57;3.85;;;;;;;4.37;100.00;100983.25;6248057;23;20000;-81
2022/01/07 06:59:25;;;;;;;2.45;2.35;;;;;;;4.40;100.00;100987.56;6247542;23;20416;-80
2022/01/07 07:01:51;;;;;;;3.50;3.30;;;;;;;4.40;100.00;100995.44;6247394;23;20001;-80
2022/01/07 07:04:17;;;;;;;3.50;3.30;;;;;;;4.41;100.00;101000.69;6247823;23;20525;-80
2022/01/07 07:06:43;;;;;;;3.00;2.83;;;;;;;4.42;100.00;100985.78;6247793;23;20430;-79
2022/01/07 07:09:08;;;;;;;2.80;2.70;;;;;;;4.39;100.00;100986.72;6247159;23;20009;-80
2022/01/07 07:11:34;;;;;;;3.05;2.85;;;;;;;4.45;100.00;100984.00;6247572;23;20008;-80
2022/01/07 07:14:00;;;;;;;2.60;2.50;;;;;;;4.35;100.00;100976.25;6247422;23;20032;-81
2022/01/07 07:16:25;;;;;;;2.90;2.80;;;;;;;4.34;100.00;100990.28;6248158;23;20000;-83
2022/01/07 07:18:51;;;;;;;2.70;2.60;;;;;;;4.29;100.00;100994.75;6250811;23;20361;-86
2022/01/07 07:21:16;;;;;;;2.42;2.33;;;;;;;4.25;100.00;100990.44;6250529;23;20082;-81
2022/01/07 07:23:43;;;;;;;3.20;3.00;;;;;;;4.24;100.00;100986.06;6250135;23;20432;-81
2022/01/07 07:26:08;;;;;;;2.75;2.60;;;;;;;4.29;100.00;100986.84;6249671;23;20428;-83
2022/01/07 07:28:40;;;;;;;2.50;2.40;;;;;;;4.27;100.00;100979.00;6250496;23;20011;-83
2022/01/07 07:31:11;;;;;;;2.70;2.60;;;;;;;4.25;100.00;100977.28;6249990;22;20500;-84
2022/01/07 07:36:40;;;;;;;3.10;2.90;;;;;;;4.07;100.00;100970.53;6249526;23;20095;-84
2022/01/07 07:39:17;;;;;;;2.72;2.63;;;;;;;4.09;100.00;100962.63;6249354;23;20392;-83
2022/01/07 07:41:49;;;;;;;2.63;2.53;;;;;;;4.11;100.00;100961.72;6248889;23;20382;-85
2022/01/07 07:44:14;;;;;;;2.70;2.60;;;;;;;3.95;100.00;100967.22;6250582;23;20421;-84
2022/01/07 07:46:58;;;;;;;2.65;2.55;;;;;;;3.92;100.00;100968.16;6250438;23;20008;-84
2022/01/07 07:49:51;;;;;;;3.95;3.65;;;;;;;3.91;100.00;100971.63;6249764;22;20023;-85
2022/01/07 12:28:56;;;;;;;1.33;1.27;;;;;;;4.59;100.00;100976.75;6250352;22;20518;-82
2022/01/07 12:31:21;;;;;;;1.10;1.10;;;;;;;4.56;100.00;100974.16;6248750;23;20031;-80
2022/01/07 12:33:52;;;;;;;1.63;1.58;;;;;;;4.54;100.00;100969.81;6248607;23;20031;-82
2022/01/07 12:36:32;;;;;;;1.20;1.20;;;;;;;4.57;100.00;100949.59;6249076;23;20051;-85
2022/01/07 12:39:07;;;;;;;1.35;1.30;;;;;;;4.52;100.00;100954.06;6248872;23;20028;-85
2022/01/07 12:41:33;;;;;;;1.27;1.23;;;;;;;4.52;100.00;100947.94;6250285;23;20008;-87
2022/01/07 12:44:05;;;;;;;1.48;1.38;;;;;;;4.43;100.00;100956.84;6249330;23;20020;-89
2022/01/07 12:46:31;;;;;;;1.20;1.20;;;;;;;4.46;100.00;100937.50;6222505;23;20012;-84
2022/01/07 12:48:56;;;;;;;1.20;1.20;;;;;;;4.40;100.00;100934.97;6249422;23;20103;-83
2022/01/07 12:51:30;;;;;;;1.50;1.40;;;;;;;4.37;100.00;100930.66;6248786;23;20008;-89
2022/01/07 12:54:04;;;;;;;2.00;1.90;;;;;;;4.48;100.00;100925.22;6249086;23;20011;-79
2022/01/07 12:56:38;;;;;;;1.30;1.25;;;;;;;4.44;100.00;100915.66;6248190;23;20007;-79
2022/01/07 12:59:13;;;;;;;1.20;1.20;;;;;;;4.46;100.00;100921.72;6247655;23;20048;-79
2022/01/07 13:01:39;;;;;;;1.45;1.35;;;;;;;4.51;100.00;100922.53;6247794;23;20014;-79
2022/01/07 13:04:16;;;;;;;1.30;1.25;;;;;;;4.54;100.00;100932.97;6247741;23;20014;-79
2022/01/07 13:06:56;;;;;;;1.20;1.20;;;;;;;4.56;100.00;100928.56;6249058;23;20063;-79
2022/01/07 13:09:30;;;;;;;3.75;1.70;;;;;;;4.50;100.00;100926.94;6248511;23;20008;-79
2022/01/07 13:11:58;;;;;;;1.52;1.42;;;;;;;4.57;100.00;100923.28;6247831;23;20004;-79
2022/01/07 13:14:25;;;;;;;1.50;1.42;;;;;;;4.62;100.00;100912.69;6247102;23;20417;-79
2022/01/07 13:16:56;;;;;;;1.42;1.38;;;;;;;4.69;100.00;100903.81;6246636;23;20008;-81
2022/01/07 13:19:22;;;;;;;2.08;1.83;;;;;;;4.62;100.00;100920.56;6248733;23;20008;-80
2022/01/07 13:21:50;;;;;;;1.10;1.10;;;;;;;4.68;100.00;100923.97;6247857;23;20012;-79
2022/01/07 13:24:19;;;;;;;1.10;1.10;;;;;;;4.73;100.00;100926.53;6248220;23;20004;-78
2022/01/07 13:26:54;;;;;;;1.40;1.30;;;;;;;4.63;100.00;100922.34;6247200;23;20099;-78
2022/01/07 13:29:24;;;;;;;1.20;1.20;;;;;;;4.69;100.00;100920.47;6247809;23;20012;-78
2022/01/07 13:31:58;;;;;;;1.23;1.15;;;;;;;4.65;100.00;100921.41;6246618;23;20012;-78
2022/01/07 13:34:33;;;;;;;1.33;1.30;;;;;;;4.55;100.00;100924.22;6248222;23;20035;-78
2022/01/07 13:37:07;;;;;;;1.30;1.30;;;;;;;4.38;100.00;100931.53;6247411;23;20000;-78
2022/01/07 13:39:44;;;;;;;1.63;1.52;;;;;;;4.34;100.00;100935.09;6247278;23;20417;-77
2022/01/07 13:42:12;;;;;;;7.50;1.58;;;;;;;4.33;100.00;100928.09;6247066;23;20007;-77
2022/01/07 13:45:10;;;;;;;1.30;1.30;;;;;;;4.21;100.00;100918.63;6247814;23;20024;-78
2022/01/07 13:47:37;;;;;;;1.30;1.30;;;;;;;4.06;100.00;100910.13;6164500;23;20008;-78
2022/01/07 13:50:11;;;;;;;1.45;1.35;;;;;;;3.87;100.00;100914.78;6247407;23;20012;-78
2022/01/07 13:52:38;;;;;;;1.20;1.20;;;;;;;3.83;100.00;100920.13;6247858;23;20022;-76
2022/01/07 13:55:04;;;;;;;1.20;1.20;;;;;;;3.77;100.00;100923.69;6247530;23;20453;-79
2022/01/07 13:57:31;;;;;;;1.58;1.48;;;;;;;3.81;100.00;100929.75;6247680;23;20320;-78
2022/01/07 13:59:57;;;;;;;1.30;1.30;;;;;;;3.82;100.00;100926.25;6247675;23;20004;-78
2022/01/07 14:02:24;;;;;;;2.55;2.33;;;;;;;3.83;100.00;100918.34;6247238;23;20054;-78
2022/01/07 14:04:56;;;;;;;1.67;1.58;;;;;;;3.85;100.00;100908.69;6247629;23;20000;-78
2022/01/07 14:07:30;;;;;;;1.48;1.38;;;;;;;3.76;100.00;100908.81;6247721;23;20004;-78
2022/01/07 14:10:17;;;;;;;1.20;1.20;;;;;;;3.92;100.00;100919.97;6247269;23;20412;-78
2022/01/07 14:13:08;;;;;;;1.50;1.40;;;;;;;3.91;100.00;100920.84;6247458;23;20099;-78
2022/01/07 14:15:42;;;;;;;1.60;1.50;;;;;;;4.00;100.00;100921.56;6225733;23;20011;-78
2022/01/07 14:18:12;;;;;;;1.45;1.35;;;;;;;4.04;100.00;100920.66;6247633;23;20007;-76
2022/01/07 14:20:56;;;;;;;3.10;2.17;;;;;;;4.17;100.00;100923.97;6247793;23;20027;-78
2022/01/07 14:23:24;;;;;;;1.30;1.30;;;;;;;4.25;100.00;100927.34;6247587;23;20007;-78
2022/01/07 14:25:59;;;;;;;1.30;1.30;;;;;;;4.27;100.00;100920.31;6247373;23;20001;-78
2022/01/07 14:28:24;;;;;;;1.38;1.30;;;;;;;4.02;100.00;100921.56;6246962;23;20102;-78
2022/01/07 14:30:49;;;;;;;1.20;1.20;;;;;;;4.10;100.00;100920.56;6247024;23;20035;-78
2022/01/07 14:33:15;;;;;;;1.92;1.83;;;;;;;3.98;100.00;100917.25;6247175;23;20008;-78
2022/01/07 14:35:40;;;;;;;1.40;1.30;;;;;;;3.89;100.00;100912.97;6247429;23;20014;-78
2022/01/07 14:38:06;;;;;;;1.42;1.33;;;;;;;3.84;100.00;100901.69;6246756;23;20447;-78
2022/01/07 14:40:32;;;;;;;2.13;2.03;;;;;;;3.75;100.00;100896.56;6247459;23;20328;-77
2022/01/07 14:42:57;;;;;;;1.40;1.30;;;;;;;3.65;100.00;100902.84;6246244;23;20000;-78
2022/01/07 14:45:23;;;;;;;1.60;1.35;;;;;;;3.59;100.00;100902.94;6247325;23;20011;-78
2022/01/07 14:47:48;;;;;;;1.45;1.35;;;;;;;3.69;100.00;100911.56;6246407;23;20000;-78
2022/01/07 14:50:15;;;;;;;1.20;1.20;;;;;;;3.61;100.00;100909.00;6246032;23;20010;-81
2022/01/07 14:52:40;;;;;;;1.33;1.30;;;;;;;3.62;100.00;100909.88;6245800;23;20030;-78
2022/01/07 14:55:08;;;;;;;1.60;1.50;;;;;;;3.57;100.00;100915.22;6247324;23;20376;-81
2022/01/07 14:57:33;;;;;;;1.30;1.30;;;;;;;3.65;100.00;100913.34;6246816;23;20000;-77
2022/01/07 14:59:58;;;;;;;2.15;2.05;;;;;;;3.64;100.00;100913.38;6246079;23;20000;-79
2022/01/07 15:02:24;;;;;;;1.60;1.50;;;;;;;3.71;100.00;100910.63;6246739;23;20014;-78
2022/01/07 15:04:55;;;;;;;1.60;1.50;;;;;;;3.68;100.00;100905.44;6247418;23;20036;-86
2022/01/07 15:07:20;;;;;;;1.60;1.50;;;;;;;3.68;100.00;100896.66;6246349;23;20008;-80
2022/01/07 15:09:45;;;;;;;1.90;1.80;;;;;;;3.72;100.00;100901.84;6246082;23;20447;-79
2022/01/07 15:12:11;;;;;;;1.98;1.88;;;;;;;3.64;100.00;100908.13;6246104;23;20004;-78
2022/01/07 15:14:39;;;;;;;1.60;1.50;;;;;;;3.65;100.00;100918.59;6246215;23;20004;-79
2022/01/07 15:17:05;;;;;;;2.20;2.10;;;;;;;3.68;100.00;100915.94;6246119;23;20000;-79
2022/01/07 15:19:32;;;;;;;1.73;1.63;;;;;;;4.06;100.00;100925.88;6246225;23;20007;-80
2022/01/07 15:22:00;;;;;;;1.50;1.40;;;;;;;4.09;100.00;100933.72;6246931;23;20004;-79
2022/01/07 15:24:25;;;;;;;1.52;1.42;;;;;;;4.24;100.00;100939.63;6246475;23;20317;-79
2022/01/07 15:26:51;;;;;;;1.40;1.30;;;;;;;4.22;100.00;100940.53;6247612;23;20035;-78
2022/01/07 15:29:16;;;;;;;1.50;1.40;;;;;;;3.90;100.00;100950.66;6246359;23;20078;-78
2022/01/07 15:31:43;;;;;;;1.70;1.60;;;;;;;3.41;100.00;100937.28;6247155;23;20011;-80
2022/01/07 15:34:10;;;;;;;1.50;1.40;;;;;;;3.00;100.00;100931.63;6247548;23;20000;-78
2022/01/07 15:36:37;;;;;;;1.63;1.52;;;;;;;2.81;100.00;100919.59;6247176;23;20000;-78
2022/01/07 15:39:05;;;;;;;1.60;1.50;;;;;;;2.72;100.00;100915.34;6247665;23;20004;-79
2022/01/07 15:41:31;;;;;;;1.60;1.50;;;;;;;2.83;100.00;100921.34;6247539;23;20000;-77
2022/01/07 15:43:57;;;;;;;1.70;1.60;;;;;;;2.77;100.00;100918.75;6248412;23;20008;-77
2022/01/07 15:46:22;;;;;;;1.83;1.73;;;;;;;2.72;100.00;100917.06;6249206;23;20026;-78
2022/01/07 15:48:47;;;;;;;1.80;1.70;;;;;;;2.77;100.00;100915.28;6249206;23;20020;-78
2022/01/07 15:51:13;;;;;;;2.67;2.47;;;;;;;2.80;100.00;100915.25;6249427;23;19988;-77
2022/01/07 15:53:38;;;;;;;2.20;2.10;;;;;;;2.68;100.00;100925.84;6249608;23;20011;-78
2022/01/07 15:56:05;;;;;;;2.30;2.20;;;;;;;2.65;100.00;100918.88;6248045;23;20086;-79
2022/01/07 15:58:31;;;;;;;2.30;2.20;;;;;;;2.59;100.00;100915.44;6249451;23;20001;-77
2022/01/07 16:00:56;;;;;;;2.92;2.72;;;;;;;2.54;100.00;100915.50;6248587;23;20157;-79
2022/01/07 16:03:22;;;;;;;2.42;2.33;;;;;;;2.55;100.00;100919.84;6249493;23;20000;-79
2022/01/07 16:05:48;;;;;;;2.40;2.30;;;;;;;2.60;100.00;100927.69;6248709;23;20435;-79
2022/01/07 16:08:13;;;;;;;2.00;1.90;;;;;;;2.51;100.00;100928.63;6248694;23;20036;-79
2022/01/07 16:10:39;;;;;;;2.10;2.00;;;;;;;2.54;100.00;100923.34;6248636;23;20004;-79
2022/01/07 16:13:04;;;;;;;2.08;1.98;;;;;;;2.54;100.00;100920.72;6248461;23;20004;-79
2022/01/07 16:15:31;;;;;;;2.00;1.90;;;;;;;2.41;100.00;100924.34;6248770;23;20077;-79
2022/01/07 16:17:58;;;;;;;2.00;1.90;;;;;;;2.40;100.00;100919.09;6247855;23;20012;-79
2022/01/07 16:20:24;;;;;;;3.03;2.83;;;;;;;2.47;100.00;100926.06;6249391;23;20004;-79
2022/01/07 16:22:51;;;;;;;6.07;2.78;;;;;;;2.42;100.00;100931.34;6248370;23;20008;-83
2022/01/07 16:25:17;;;;;;;2.10;2.00;;;;;;;2.44;100.00;100933.94;6248943;23;20008;-79
2022/01/07 16:27:44;;;;;;;2.00;1.90;;;;;;;2.47;100.00;100936.53;6247564;23;20209;-78
2022/01/07 16:30:12;;;;;;;2.47;2.38;;;;;;;2.43;100.00;100945.28;6248257;23;20019;-79
2022/01/07 16:32:39;;;;;;;2.10;2.00;;;;;;;2.52;100.00;100935.59;6248317;23;20006;-77
2022/01/07 16:35:05;;;;;;;2.20;2.10;;;;;;;2.41;100.00;100941.84;6247622;23;20051;-78
2022/01/07 16:37:32;;;;;;;2.53;2.42;;;;;;;2.33;100.00;100931.38;6247425;23;20016;-78
2022/01/07 16:39:57;;;;;;;2.10;2.00;;;;;;;2.41;100.00;100932.19;6248450;23;20015;-79
2022/01/07 16:42:23;;;;;;;2.55;2.45;;;;;;;2.40;100.00;100927.84;6247364;23;20004;-79
2022/01/07 16:44:48;;;;;;;2.08;1.98;;;;;;;2.28;100.00;100924.47;6247837;23;20087;-80
2022/01/07 16:47:14;;;;;;;2.00;1.90;;;;;;;2.28;100.00;100927.06;6248068;23;20007;-80
2022/01/07 16:49:39;;;;;;;1.95;1.85;;;;;;;2.17;100.00;100924.56;6248554;23;20007;-84
2022/01/07 16:52:05;;;;;;;2.53;2.42;;;;;;;2.12;100.00;100930.69;6248581;23;20027;-80
2022/01/07 16:54:30;;;;;;;2.63;2.53;;;;;;;2.21;100.00;100933.22;6249589;23;20004;-78
2022/01/07 16:57:00;;;;;;;2.28;2.17;;;;;;;2.15;100.00;100936.78;6248420;23;20303;-80
2022/01/07 16:59:26;;;;;;;2.30;2.20;;;;;;;2.03;100.00;100929.03;6249179;23;20007;-84
2022/01/07 17:01:51;;;;;;;2.13;2.03;;;;;;;2.09;100.00;100923.75;6249436;23;20024;-80
2022/01/07 17:04:16;;;;;;;2.08;1.98;;;;;;;2.15;100.00;100922.81;6248875;23;20004;-79
2022/01/07 17:06:41;;;;;;;2.00;1.90;;;;;;;2.27;100.00;100926.19;6247877;23;20011;-78
2022/01/07 17:09:07;;;;;;;1.80;1.70;;;;;;;2.27;100.00;100927.97;6248382;23;20032;-78
2022/01/07 17:11:32;;;;;;;1.85;1.75;;;;;;;2.15;100.00;100934.16;6247772;23;20028;-82
2022/01/07 17:13:57;;;;;;;2.22;2.13;;;;;;;2.17;100.00;100935.03;6248741;23;20026;-81
2022/01/07 17:16:23;;;;;;;2.03;1.92;;;;;;;2.18;100.00;100931.53;6248965;22;20010;-83
2022/01/07 17:18:49;;;;;;;2.35;2.25;;;;;;;2.17;100.00;100929.78;6248372;23;20000;-80
2022/01/07 17:21:15;;;;;;;2.08;1.98;;;;;;;2.17;100.00;100929.78;6249220;23;20000;-78
2022/01/07 17:23:40;;;;;;;1.90;1.80;;;;;;;2.07;100.00;100919.38;6247735;23;20413;-80
2022/01/07 17:26:06;;;;;;;2.17;2.08;;;;;;;2.05;100.00;100924.63;6247968;23;20008;-79
2022/01/07 17:28:31;;;;;;;2.10;2.00;;;;;;;2.07;100.00;100925.50;6247991;23;20016;-79
2022/01/07 17:30:56;;;;;;;2.20;2.10;;;;;;;1.92;100.00;100919.50;6247990;23;20012;-79
2022/01/07 17:33:21;;;;;;;2.30;2.20;;;;;;;1.99;100.00;100916.81;6247620;23;20004;-79
2022/01/07 17:35:47;;;;;;;2.10;2.00;;;;;;;1.89;100.00;100909.88;6247418;23;20071;-80
2022/01/07 17:38:12;;;;;;;2.10;2.00;;;;;;;1.87;100.00;100906.44;6247521;23;20438;-79
2022/01/07 17:40:38;;;;;;;2.20;2.10;;;;;;;2.06;100.00;100908.03;6248013;23;20010;-79
2022/01/07 17:43:03;;;;;;;2.78;2.58;;;;;;;1.99;100.00;100910.69;6247130;23;20004;-78
2022/01/07 17:45:29;;;;;;;3.17;2.97;;;;;;;2.02;100.00;100906.31;6219496;23;20015;-79
2022/01/07 17:47:56;;;;;;;2.53;2.42;;;;;;;2.11;100.00;100911.47;6246038;23;20027;-79
2022/01/07 17:50:21;;;;;;;2.10;2.00;;;;;;;2.39;100.00;100922.63;6247425;23;20004;-78
2022/01/07 17:52:47;;;;;;;2.00;1.90;;;;;;;2.81;100.00;100915.22;6245740;23;20058;-78
2022/01/07 17:55:12;;;;;;;1.80;1.70;;;;;;;3.05;100.00;100911.47;6247086;23;20091;-79
2022/01/07 17:57:41;;;;;;;1.80;1.70;;;;;;;3.12;100.00;100908.75;6247703;23;20000;-79
2022/01/07 18:00:09;;;;;;;2.27;2.17;;;;;;;3.10;100.00;100913.16;6246447;23;20004;-79
2022/01/07 18:02:34;;;;;;;1.80;1.70;;;;;;;3.37;100.00;100911.09;6247609;23;20009;-80
2022/01/07 18:05:00;;;;;;;1.80;1.70;;;;;;;3.37;100.00;100914.59;6248076;23;20413;-80
2022/01/07 18:07:25;;;;;;;1.80;1.70;;;;;;;3.45;100.00;100923.22;6247326;23;20007;-80
2022/01/07 18:09:50;;;;;;;2.42;2.33;;;;;;;3.26;100.00;100920.84;6246459;23;20027;-79
2022/01/07 18:12:16;;;;;;;1.98;1.88;;;;;;;3.27;100.00;100917.34;6247657;23;20007;-79
2022/01/07 18:14:41;;;;;;;2.10;2.00;;;;;;;3.24;100.00;100918.25;6247391;23;20028;-79
2022/01/07 18:17:06;;;;;;;2.20;2.10;;;;;;;3.13;100.00;100920.13;6247145;23;20008;-79
2022/01/07 18:19:31;;;;;;;2.20;2.10;;;;;;;3.15;100.00;100921.00;6246113;23;20004;-79
2022/01/07 18:21:57;;;;;;;2.42;2.33;;;;;;;3.03;100.00;100916.75;6246739;23;20023;-79
2022/01/07 18:24:22;;;;;;;2.50;2.40;;;;;;;2.99;100.00;100922.03;6247443;23;20058;-79
2022/01/07 18:26:48;;;;;;;2.13;2.03;;;;;;;2.97;100.00;100921.19;6246751;23;20004;-79
2022/01/07 18:29:14;;;;;;;2.20;2.10;;;;;;;2.81;100.00;100922.22;6246679;23;20012;-79
2022/01/07 18:31:40;;;;;;;2.05;1.95;;;;;;;2.88;100.00;100913.41;6247196;23;20091;-79
2022/01/07 18:34:05;;;;;;;2.10;2.00;;;;;;;2.98;100.00;100922.91;6247012;23;20011;-78
2022/01/07 18:36:31;;;;;;;2.35;2.25;;;;;;;3.05;100.00;100925.47;6247290;23;20004;-79
2022/01/07 18:38:58;;;;;;;1.83;1.73;;;;;;;3.24;100.00;100917.38;6246949;23;20316;-79
2022/01/07 18:41:24;;;;;;;1.90;1.80;;;;;;;3.23;100.00;100920.91;6247256;23;20497;-79
2022/01/07 18:43:49;;;;;;;2.45;2.33;;;;;;;3.23;100.00;100926.16;6247315;23;20004;-80
2022/01/07 18:46:14;;;;;;;2.05;1.95;;;;;;;3.29;100.00;100924.31;6246481;23;20010;-80
2022/01/07 18:48:41;;;;;;;1.73;1.63;;;;;;;3.28;100.00;100914.69;6247142;23;20018;-83
2022/01/07 18:51:06;;;;;;;1.70;1.60;;;;;;;3.18;100.00;100920.97;6247408;23;20091;-79
2022/01/07 18:53:32;;;;;;;1.60;1.50;;;;;;;3.09;100.00;100924.53;6246828;23;20000;-79
2022/01/07 18:55:58;;;;;;;1.70;1.60;;;;;;;3.04;100.00;100921.09;6245666;23;20000;-77